Airfield :
LOGIN :

Register | Disclaimer

   EN    FR    IT 

 










Legend :    VFR   Marginal VFR   IFR   Intensive IFR   Very Intensive IFR
Visi :
Ceiling :
>= 8 km
>= 3000ft
5 to 8 km
1000 to 3000 ft
1500m to 5 km
500 to 1000 ft
800 to 1500m
200 to 500 ft
< 800m
< 200 ft
Symbols :   Thunderstorms  Fog  Heavy snow  Heavy precipitations  Wind > 20 kt
SIGMETs :     Misc.  Thunderstorms  Icing  Turbulence  Mountain Waves  Volcanic Ashes






- Airport Elevation : 142 ft
- IATA code : FLR


LIRQ - Firenze Amerigo Vespucci

CURRENT METAR :
  • 300220Z AUTO 31005KT 250V040 9999 SCT040/// 08/01 Q1014

EXPIRED METARs :
  • 300150Z AUTO VRB04KT 9999 FEW040/// BKN240/// 08/02 Q1014
  • 300120Z AUTO VRB03KT 9999 BKN036/// 08/02 Q1014
  • 300020Z AUTO 35006KT 300V050 9999 SCT036/// BKN100/// 08/03 Q1014
  • 292350Z AUTO 33007KT 290V010 9999 BKN034/// BKN100/// 08/03 Q1014

TAF TAF LIRQ
Valid from the 30 at 00:00 until the 01 at 00:00 UTC


292300Z 3000/3024 03010KT 9999 FEW040



MET'MAP, your aeronautical weather chart ! - Copyright ORBIFLY December 2007 - Disclaimer

ORBIFLY MET'MAP TEAM :

Programming & Development : Alexandra Zaïnal
Original concept : Baudouin d'Aumeries
Technical & hardware support : Manuel Goepfert
Assistance : Marc-Olivier Méhu




SOURCES & CREDITS :

   NOAA